Time;durP1;ratioP1;P1;durP2;ratioP2;P2;SDS_P1;SDS_P2;PMS_P1;PMS_P2;Temp;Humidity;BMP_temperature;BMP_pressure;BME280_temperature;BME280_humidity;BME280_pressure;Samples;Min_cycle;Max_cycle;Signal;HPM_P1;HPM_P2
2023/12/01 00:01:18;;;;;;;69.18;15.05;;;;;;;;;;5096007;28;20052;-77
2023/12/01 00:03:45;;;;;;;62.63;15.00;;;;;;;;;;5092655;28;20048;-77
2023/12/01 00:06:11;;;;;;;70.35;15.75;;;;;;;;;;5092599;28;20476;-76
2023/12/01 00:08:37;;;;;;;64.35;14.68;;;;;;;;;;5092496;28;20105;-77
2023/12/01 00:11:03;;;;;;;65.00;14.82;;;;;;;;;;5075782;28;20044;-76
2023/12/01 00:13:29;;;;;;;65.68;15.25;;;;;;;;;;5092608;28;20052;-76
2023/12/01 00:15:55;;;;;;;61.42;14.40;;;;;;;;;;5093233;28;20044;-76
2023/12/01 00:18:21;;;;;;;68.10;16.13;;;;;;;;;;5093234;28;20088;-77
2023/12/01 00:20:47;;;;;;;67.63;14.93;;;;;;;;;;5093503;28;20134;-77
2023/12/01 00:23:13;;;;;;;71.88;14.75;;;;;;;;;;5092228;28;20131;-77
2023/12/01 00:25:40;;;;;;;63.08;14.70;;;;;;;;;;5093623;28;20044;-76
2023/12/01 00:28:06;;;;;;;67.45;14.57;;;;;;;;;;5093455;28;20132;-76
2023/12/01 00:30:32;;;;;;;69.47;16.17;;;;;;;;;;5093652;28;20102;-76
2023/12/01 00:32:58;;;;;;;63.03;14.70;;;;;;;;;;5094415;28;20075;-77
2023/12/01 00:35:25;;;;;;;79.00;18.65;;;;;;;;;;5092282;28;20044;-75
2023/12/01 00:37:51;;;;;;;76.88;15.73;;;;;;;;;;5092732;28;20048;-77
2023/12/01 00:40:17;;;;;;;66.60;15.75;;;;;;;;;;5126399;28;20492;-76
2023/12/01 00:42:46;;;;;;;68.88;16.08;;;;;;;;;;5092842;28;20048;-76
2023/12/01 00:45:12;;;;;;;78.75;16.65;;;;;;;;;;5093152;28;20499;-77
2023/12/01 00:47:38;;;;;;;79.03;16.40;;;;;;;;;;5093243;28;20090;-77
2023/12/01 00:50:05;;;;;;;67.38;15.20;;;;;;;;;;5093173;28;20036;-77
2023/12/01 00:52:31;;;;;;;77.20;15.90;;;;;;;;;;5094026;28;20048;-77
2023/12/01 00:54:57;;;;;;;72.85;14.88;;;;;;;;;;5094773;28;20136;-74
2023/12/01 00:57:23;;;;;;;74.20;15.82;;;;;;;;;;5094112;28;20105;-76
2023/12/01 00:59:49;;;;;;;80.20;16.05;;;;;;;;;;5092141;28;20040;-76
2023/12/01 01:02:16;;;;;;;69.07;16.05;;;;;;;;;;5075573;28;20048;-77
2023/12/01 01:04:42;;;;;;;79.72;16.25;;;;;;;;;;5094377;28;20114;-76
2023/12/01 01:07:08;;;;;;;72.50;15.57;;;;;;;;;;5096693;28;20051;-78
2023/12/01 01:09:34;;;;;;;71.30;15.25;;;;;;;;;;5097411;28;20403;-76
2023/12/01 01:12:01;;;;;;;64.18;15.05;;;;;;;;;;5096966;28;20090;-77
2023/12/01 01:14:27;;;;;;;76.45;16.75;;;;;;;;;;5100427;28;20082;-76
2023/12/01 01:16:53;;;;;;;77.50;15.60;;;;;;;;;;5099822;28;20048;-77
2023/12/01 01:19:19;;;;;;;69.95;17.55;;;;;;;;;;5129718;27;20369;-77
2023/12/01 01:21:46;;;;;;;74.32;15.63;;;;;;;;;;5095246;28;20048;-77
2023/12/01 01:24:12;;;;;;;80.78;19.27;;;;;;;;;;5096327;28;20050;-77
2023/12/01 01:26:38;;;;;;;77.50;16.70;;;;;;;;;;5096308;28;20044;-77
2023/12/01 01:29:04;;;;;;;73.15;14.45;;;;;;;;;;5096049;28;20040;-76
2023/12/01 01:31:30;;;;;;;74.50;15.65;;;;;;;;;;5095069;28;20044;-76
2023/12/01 01:33:56;;;;;;;78.78;16.95;;;;;;;;;;5078165;28;20127;-77
2023/12/01 01:36:22;;;;;;;72.88;15.43;;;;;;;;;;5095994;28;20047;-77
2023/12/01 01:38:48;;;;;;;68.97;15.13;;;;;;;;;;5095213;28;20117;-76
2023/12/01 01:41:14;;;;;;;64.70;13.82;;;;;;;;;;5095930;28;20059;-78
2023/12/01 01:43:40;;;;;;;73.85;14.57;;;;;;;;;;5095106;28;20051;-77
2023/12/01 01:46:07;;;;;;;59.53;12.82;;;;;;;;;;5096272;28;20048;-76
2023/12/01 01:48:34;;;;;;;60.63;13.38;;;;;;;;;;5094582;28;20124;-77
2023/12/01 01:51:01;;;;;;;65.55;16.10;;;;;;;;;;5095809;28;20053;-77
2023/12/01 01:53:30;;;;;;;56.42;13.73;;;;;;;;;;5094386;28;20048;-77
2023/12/01 01:55:58;;;;;;;60.63;12.90;;;;;;;;;;5129753;27;20084;-78
2023/12/01 01:58:24;;;;;;;49.22;12.50;;;;;;;;;;5095929;28;20127;-76
2023/12/01 02:00:51;;;;;;;58.13;14.15;;;;;;;;;;5095792;28;20127;-77
2023/12/01 02:03:18;;;;;;;58.07;13.00;;;;;;;;;;5095482;28;20048;-77
2023/12/01 02:05:47;;;;;;;51.25;11.98;;;;;;;;;;5095385;28;20127;-77
2023/12/01 02:08:27;;;;;;;47.80;11.98;;;;;;;;;;5094498;28;20066;-76
2023/12/01 02:10:57;;;;;;;46.00;10.95;;;;;;;;;;5078784;28;20040;-77
2023/12/01 02:13:24;;;;;;;46.50;11.57;;;;;;;;;;5097866;28;20048;-77
2023/12/01 02:15:51;;;;;;;55.70;14.52;;;;;;;;;;5100171;28;20051;-76
2023/12/01 02:18:24;;;;;;;46.58;10.93;;;;;;;;;;5095866;28;20380;-77
2023/12/01 02:20:54;;;;;;;48.78;11.30;;;;;;;;;;5095364;28;20048;-78
2023/12/01 02:23:20;;;;;;;51.00;12.80;;;;;;;;;;5077384;28;20051;-77
2023/12/01 02:25:47;;;;;;;47.28;11.60;;;;;;;;;;5094365;28;20487;-78
2023/12/01 02:28:13;;;;;;;44.13;10.82;;;;;;;;;;5094071;28;20479;-76
2023/12/01 02:30:39;;;;;;;47.65;11.68;;;;;;;;;;5095038;28;20415;-79
2023/12/01 02:33:05;;;;;;;45.88;12.13;;;;;;;;;;5095161;28;20044;-77
2023/12/01 02:35:32;;;;;;;48.40;10.82;;;;;;;;;;5094804;28;20541;-77
2023/12/01 02:38:01;;;;;;;47.80;10.98;;;;;;;;;;5094876;28;20070;-78
2023/12/01 02:40:27;;;;;;;51.90;12.25;;;;;;;;;;5095167;28;20048;-78
2023/12/01 02:42:55;;;;;;;40.70;10.18;;;;;;;;;;5095625;28;20048;-77
2023/12/01 02:45:21;;;;;;;46.08;12.60;;;;;;;;;;5093640;28;20047;-78
2023/12/01 02:47:49;;;;;;;53.50;11.63;;;;;;;;;;5094952;28;20043;-76
2023/12/01 02:50:15;;;;;;;39.78;9.48;;;;;;;;;;5094975;28;20419;-76
2023/12/01 02:52:41;;;;;;;45.20;10.48;;;;;;;;;;5093613;28;20373;-78
2023/12/01 02:55:08;;;;;;;44.15;10.00;;;;;;;;;;5093683;28;20051;-79
2023/12/01 02:57:39;;;;;;;40.03;9.10;;;;;;;;;;5076619;28;20086;-76
2023/12/01 03:00:08;;;;;;;38.97;10.38;;;;;;;;;;5095327;28;20703;-78
2023/12/01 03:02:34;;;;;;;47.13;11.95;;;;;;;;;;5095990;28;20048;-79
2023/12/01 03:05:00;;;;;;;43.08;11.10;;;;;;;;;;5096421;28;20067;-78
2023/12/01 03:07:27;;;;;;;52.78;12.32;;;;;;;;;;5095003;28;20044;-76
2023/12/01 03:09:53;;;;;;;59.00;13.18;;;;;;;;;;5093304;28;20044;-76
2023/12/01 03:12:20;;;;;;;47.17;11.27;;;;;;;;;;5093259;28;20048;-78
2023/12/01 03:14:47;;;;;;;48.88;13.25;;;;;;;;;;5093333;28;20047;-78
2023/12/01 03:17:13;;;;;;;48.30;11.57;;;;;;;;;;5094543;28;20136;-77
2023/12/01 03:19:39;;;;;;;40.60;9.80;;;;;;;;;;5094128;28;20040;-79
2023/12/01 03:22:05;;;;;;;51.83;13.70;;;;;;;;;;5076282;28;20058;-79
2023/12/01 03:24:31;;;;;;;37.33;9.32;;;;;;;;;;5094164;28;20131;-78
2023/12/01 03:26:57;;;;;;;35.05;8.55;;;;;;;;;;5075802;28;20067;-77
2023/12/01 03:29:23;;;;;;;43.30;10.75;;;;;;;;;;5096891;28;20040;-77
2023/12/01 03:31:49;;;;;;;38.90;9.80;;;;;;;;;;5096421;28;20055;-78
2023/12/01 03:34:15;;;;;;;36.90;8.82;;;;;;;;;;5077515;28;20388;-79
2023/12/01 03:36:41;;;;;;;35.95;10.43;;;;;;;;;;5092990;28;20097;-79
2023/12/01 03:39:09;;;;;;;34.88;8.57;;;;;;;;;;5093874;28;20452;-78
2023/12/01 03:41:36;;;;;;;38.03;10.15;;;;;;;;;;5092713;28;20048;-80
2023/12/01 03:44:02;;;;;;;32.35;8.20;;;;;;;;;;5093896;28;20576;-79
2023/12/01 03:46:28;;;;;;;32.90;9.38;;;;;;;;;;5092725;28;20408;-81
2023/12/01 03:48:54;;;;;;;33.90;9.20;;;;;;;;;;5093839;28;20140;-81
2023/12/01 03:51:20;;;;;;;35.13;10.30;;;;;;;;;;5093688;28;20087;-79
2023/12/01 03:53:46;;;;;;;39.13;12.18;;;;;;;;;;5093733;28;20050;-79
2023/12/01 03:56:12;;;;;;;32.53;9.57;;;;;;;;;;5093424;28;20100;-80
2023/12/01 03:58:38;;;;;;;34.42;9.15;;;;;;;;;;5093484;28;20050;-77
2023/12/01 04:01:05;;;;;;;29.75;8.35;;;;;;;;;;5093354;28;20090;-81
2023/12/01 04:03:32;;;;;;;31.23;8.50;;;;;;;;;;5093798;28;20071;-82
2023/12/01 04:06:01;;;;;;;32.58;8.57;;;;;;;;;;5093078;28;20361;-80
2023/12/01 04:08:27;;;;;;;35.65;11.90;;;;;;;;;;5093922;28;20056;-78
2023/12/01 04:10:55;;;;;;;29.95;8.75;;;;;;;;;;5092772;28;20504;-82
2023/12/01 04:13:21;;;;;;;34.10;9.23;;;;;;;;;;5094069;28;20052;-79
2023/12/01 04:15:47;;;;;;;33.90;10.50;;;;;;;;;;5094869;28;20131;-79
2023/12/01 04:18:13;;;;;;;34.40;8.65;;;;;;;;;;5093846;28;20078;-78
2023/12/01 04:20:39;;;;;;;32.83;10.02;;;;;;;;;;5094156;28;20051;-77
2023/12/01 04:23:09;;;;;;;28.50;8.80;;;;;;;;;;5102497;28;20388;-81
2023/12/01 04:25:38;;;;;;;29.13;8.00;;;;;;;;;;5103565;28;20052;-81
2023/12/01 04:28:05;;;;;;;30.30;9.07;;;;;;;;;;5098348;28;20044;-82
2023/12/01 04:30:31;;;;;;;28.55;7.72;;;;;;;;;;5097180;28;20549;-78
2023/12/01 04:32:59;;;;;;;35.78;8.68;;;;;;;;;;5097851;28;20051;-79
2023/12/01 04:35:35;;;;;;;38.50;12.00;;;;;;;;;;5097037;28;20123;-80
2023/12/01 04:38:08;;;;;;;29.23;8.40;;;;;;;;;;5097378;28;20047;-83
2023/12/01 04:40:36;;;;;;;31.17;8.73;;;;;;;;;;5101520;28;20060;-82
2023/12/01 04:43:06;;;;;;;35.47;8.32;;;;;;;;;;5101895;28;20137;-82
2023/12/01 04:45:32;;;;;;;33.05;9.07;;;;;;;;;;5110440;28;20048;-76
2023/12/01 04:47:59;;;;;;;35.63;10.32;;;;;;;;;;5104525;28;20083;-83
2023/12/01 04:50:26;;;;;;;33.45;9.70;;;;;;;;;;5102834;28;20052;-81
2023/12/01 04:52:53;;;;;;;34.53;8.25;;;;;;;;;;5104323;28;20084;-84
2023/12/01 04:55:20;;;;;;;38.50;10.30;;;;;;;;;;5102544;28;20100;-81
2023/12/01 04:57:47;;;;;;;23.25;7.32;;;;;;;;;;5103954;28;20055;-83
2023/12/01 05:00:20;;;;;;;;;;;;;;;;;;5101347;28;20097;-82
2023/12/01 05:02:51;;;;;;;34.75;8.48;;;;;;;;;;5081587;28;19930;-84
2023/12/01 05:05:18;;;;;;;32.13;8.68;;;;;;;;;;5082163;28;20087;-85
2023/12/01 05:07:44;;;;;;;38.42;8.88;;;;;;;;;;5099574;28;20052;-85
2023/12/01 05:10:14;;;;;;;33.20;8.77;;;;;;;;;;5081945;28;20048;-84
2023/12/01 05:12:44;;;;;;;37.70;9.23;;;;;;;;;;5106175;28;20084;-85
2023/12/01 05:15:15;;;;;;;39.17;10.55;;;;;;;;;;5109431;28;20434;-85
2023/12/01 05:17:48;;;;;;;37.05;9.85;;;;;;;;;;5102679;28;20044;-85
2023/12/01 05:20:15;;;;;;;38.92;9.65;;;;;;;;;;5099036;28;20043;-81
2023/12/01 05:22:44;;;;;;;31.02;7.35;;;;;;;;;;5097376;28;20048;-82
2023/12/01 05:25:16;;;;;;;27.30;6.90;;;;;;;;;;5096096;28;20473;-83
2023/12/01 05:27:50;;;;;;;35.70;9.98;;;;;;;;;;5098588;28;20040;-81
2023/12/01 05:30:17;;;;;;;41.15;14.45;;;;;;;;;;5096747;28;20044;-82
2023/12/01 05:32:44;;;;;;;30.85;8.52;;;;;;;;;;5096646;28;20044;-83
2023/12/01 05:35:11;;;;;;;38.55;12.13;;;;;;;;;;5096185;28;20040;-80
2023/12/01 05:37:38;;;;;;;33.80;8.30;;;;;;;;;;5095562;28;20488;-78
2023/12/01 05:40:06;;;;;;;32.70;8.77;;;;;;;;;;5077957;28;20051;-80
2023/12/01 05:42:32;;;;;;;32.95;8.55;;;;;;;;;;5094585;28;20503;-81
2023/12/01 05:44:59;;;;;;;32.47;9.20;;;;;;;;;;5078321;28;20048;-79
2023/12/01 05:47:25;;;;;;;34.85;9.05;;;;;;;;;;5096690;28;20075;-77
2023/12/01 05:49:51;;;;;;;39.70;10.60;;;;;;;;;;5094705;28;20048;-77
2023/12/01 05:52:17;;;;;;;39.08;11.88;;;;;;;;;;5095583;28;20059;-79
2023/12/01 05:54:43;;;;;;;34.35;9.70;;;;;;;;;;5094547;28;20052;-78
2023/12/01 05:57:09;;;;;;;40.17;10.93;;;;;;;;;;5096752;28;20040;-79
2023/12/01 05:59:35;;;;;;;38.28;9.48;;;;;;;;;;5099998;28;20051;-78
2023/12/01 06:02:10;;;;;;;36.13;9.70;;;;;;;;;;5096756;28;20048;-78
2023/12/01 06:04:37;;;;;;;39.05;11.25;;;;;;;;;;5095079;28;20052;-76
2023/12/01 06:07:03;;;;;;;35.92;9.98;;;;;;;;;;5094163;28;20146;-76
2023/12/01 06:09:29;;;;;;;41.67;10.15;;;;;;;;;;5095392;28;20040;-78
2023/12/01 06:11:55;;;;;;;38.88;10.38;;;;;;;;;;5095487;28;20105;-76
2023/12/01 06:14:22;;;;;;;39.17;10.43;;;;;;;;;;5094317;28;20040;-76
2023/12/01 06:16:48;;;;;;;40.67;11.25;;;;;;;;;;5095138;28;20043;-78
2023/12/01 06:19:14;;;;;;;39.47;10.60;;;;;;;;;;5094584;28;20503;-77
2023/12/01 06:21:40;;;;;;;40.40;11.20;;;;;;;;;;5097833;28;20054;-77
2023/12/01 06:24:06;;;;;;;44.03;11.30;;;;;;;;;;5098196;28;20051;-78
2023/12/01 06:26:32;;;;;;;40.47;10.00;;;;;;;;;;5078912;28;20055;-79
2023/12/01 06:28:58;;;;;;;40.72;11.30;;;;;;;;;;5096339;28;20040;-78
2023/12/01 06:31:25;;;;;;;39.72;9.35;;;;;;;;;;5096280;28;20048;-77
2023/12/01 06:33:51;;;;;;;41.10;11.13;;;;;;;;;;5077346;28;20044;-77
2023/12/01 06:36:17;;;;;;;41.50;10.35;;;;;;;;;;5094723;28;20094;-78
2023/12/01 06:38:43;;;;;;;43.13;11.07;;;;;;;;;;5093809;28;20119;-77
2023/12/01 06:41:09;;;;;;;42.80;10.57;;;;;;;;;;5096346;28;20487;-78
2023/12/01 06:43:35;;;;;;;45.05;11.20;;;;;;;;;;5093565;28;20044;-77
2023/12/01 06:46:02;;;;;;;37.63;9.30;;;;;;;;;;5093764;28;20396;-76
2023/12/01 06:48:28;;;;;;;37.88;10.10;;;;;;;;;;5094666;28;20094;-77
2023/12/01 06:50:54;;;;;;;42.22;9.40;;;;;;;;;;5094061;28;20044;-77
2023/12/01 06:53:20;;;;;;;46.67;11.27;;;;;;;;;;5093404;28;20127;-76
2023/12/01 06:55:46;;;;;;;43.80;10.88;;;;;;;;;;5095032;28;20040;-76
2023/12/01 06:58:12;;;;;;;45.35;11.73;;;;;;;;;;5094453;28;20047;-76
2023/12/01 07:00:39;;;;;;;45.40;11.40;;;;;;;;;;5076321;28;20399;-77
2023/12/01 07:03:09;;;;;;;44.72;10.52;;;;;;;;;;5127494;27;20044;-77
2023/12/01 07:05:37;;;;;;;45.83;10.57;;;;;;;;;;5095121;28;20048;-76
2023/12/01 07:08:03;;;;;;;57.78;12.05;;;;;;;;;;5080708;28;20052;-77
2023/12/01 07:10:32;;;;;;;48.22;11.45;;;;;;;;;;5095263;28;20063;-76
2023/12/01 07:12:59;;;;;;;41.90;10.10;;;;;;;;;;5095045;28;20127;-76
2023/12/01 07:15:25;;;;;;;40.15;11.80;;;;;;;;;;5094073;28;20128;-75
2023/12/01 07:17:56;;;;;;;47.55;10.43;;;;;;;;;;5093818;28;20131;-76
2023/12/01 07:20:22;;;;;;;53.25;11.43;;;;;;;;;;5093591;28;20349;-77
2023/12/01 07:22:51;;;;;;;51.33;11.07;;;;;;;;;;5093877;28;20044;-76
2023/12/01 07:25:24;;;;;;;43.45;10.35;;;;;;;;;;5094172;28;20052;-76
2023/12/01 07:27:50;;;;;;;45.60;10.85;;;;;;;;;;5092912;28;20102;-75
2023/12/01 07:30:16;;;;;;;53.00;12.25;;;;;;;;;;5093870;28;20058;-76
2023/12/01 07:32:46;;;;;;;47.08;11.45;;;;;;;;;;5077000;28;20369;-76
2023/12/01 07:35:12;;;;;;;51.75;11.88;;;;;;;;;;5093857;28;20044;-76
2023/12/01 07:37:42;;;;;;;49.45;11.10;;;;;;;;;;5092455;28;20454;-76
2023/12/01 07:40:20;;;;;;;46.60;11.95;;;;;;;;;;5075235;28;20060;-76
2023/12/01 07:42:47;;;;;;;55.38;11.45;;;;;;;;;;5093469;28;20500;-76
2023/12/01 07:45:17;;;;;;;51.72;11.85;;;;;;;;;;5093853;28;20051;-76
2023/12/01 07:47:43;;;;;;;54.85;12.23;;;;;;;;;;5059714;28;20048;-76
2023/12/01 07:50:09;;;;;;;51.53;12.48;;;;;;;;;;5092696;28;20130;-78
2023/12/01 07:52:35;;;;;;;67.35;18.20;;;;;;;;;;5092166;28;20040;-77
2023/12/01 07:55:01;;;;;;;53.22;13.82;;;;;;;;;;5092303;28;20476;-76
2023/12/01 07:57:27;;;;;;;54.75;15.82;;;;;;;;;;5093505;28;20423;-77
2023/12/01 07:59:53;;;;;;;64.15;18.17;;;;;;;;;;5075786;28;20051;-76
2023/12/01 08:02:19;;;;;;;53.00;14.52;;;;;;;;;;5076527;28;20119;-76
2023/12/01 08:04:45;;;;;;;51.70;12.90;;;;;;;;;;5093029;28;20082;-76
2023/12/01 08:07:12;;;;;;;57.03;13.32;;;;;;;;;;5092365;28;20093;-77
2023/12/01 08:09:38;;;;;;;54.00;12.90;;;;;;;;;;5093756;28;20044;-79
2023/12/01 08:12:04;;;;;;;51.47;11.60;;;;;;;;;;5092492;28;20455;-76
2023/12/01 08:14:30;;;;;;;49.88;11.93;;;;;;;;;;5096259;28;20495;-76
2023/12/01 08:16:56;;;;;;;48.35;12.73;;;;;;;;;;5099865;28;20054;-77
2023/12/01 08:19:23;;;;;;;52.40;12.63;;;;;;;;;;5098161;28;20054;-76
2023/12/01 08:21:49;;;;;;;52.40;12.93;;;;;;;;;;5132488;27;20046;-77
2023/12/01 08:24:17;;;;;;;47.67;11.50;;;;;;;;;;5096663;28;20102;-77
2023/12/01 08:26:43;;;;;;;52.80;12.65;;;;;;;;;;5096683;28;20095;-77
2023/12/01 08:29:09;;;;;;;53.65;12.75;;;;;;;;;;5097759;28;20306;-77
2023/12/01 08:31:36;;;;;;;48.78;11.35;;;;;;;;;;5097189;28;20135;-77
2023/12/01 08:34:02;;;;;;;51.60;12.20;;;;;;;;;;5096022;28;20058;-76
2023/12/01 08:36:28;;;;;;;55.78;13.48;;;;;;;;;;5097117;28;20412;-77
2023/12/01 08:38:54;;;;;;;47.30;11.43;;;;;;;;;;5096717;28;20048;-78
2023/12/01 08:41:21;;;;;;;43.17;9.57;;;;;;;;;;5079070;28;20055;-77
2023/12/01 08:43:47;;;;;;;44.90;11.63;;;;;;;;;;5097389;28;20044;-76
2023/12/01 08:46:13;;;;;;;47.20;10.87;;;;;;;;;;5096816;28;20127;-76
2023/12/01 08:48:39;;;;;;;49.90;11.27;;;;;;;;;;5095829;28;20044;-77
2023/12/01 08:51:05;;;;;;;51.20;10.45;;;;;;;;;;5079625;28;20048;-77
2023/12/01 08:53:31;;;;;;;46.03;11.52;;;;;;;;;;5061993;28;20055;-79
2023/12/01 08:55:58;;;;;;;51.63;12.65;;;;;;;;;;5096382;28;20044;-80
2023/12/01 08:58:24;;;;;;;54.42;12.73;;;;;;;;;;5078382;28;20059;-78
2023/12/01 09:00:51;;;;;;;54.78;12.80;;;;;;;;;;5096719;28;20036;-79
2023/12/01 09:03:17;;;;;;;48.90;12.30;;;;;;;;;;5096438;28;20056;-77
2023/12/01 09:05:43;;;;;;;47.40;11.27;;;;;;;;;;5079337;28;20047;-77
2023/12/01 09:08:09;;;;;;;50.28;12.40;;;;;;;;;;5062049;28;20048;-79
2023/12/01 09:10:35;;;;;;;43.95;14.45;;;;;;;;;;5061791;28;20476;-78
2023/12/01 09:13:01;;;;;;;42.47;10.23;;;;;;;;;;5094948;28;20530;-77
2023/12/01 09:15:27;;;;;;;39.75;10.25;;;;;;;;;;5078392;28;20083;-79
2023/12/01 09:17:53;;;;;;;46.40;11.50;;;;;;;;;;5078781;28;20048;-78
2023/12/01 09:20:20;;;;;;;47.15;10.93;;;;;;;;;;5094964;28;20048;-79
2023/12/01 09:22:46;;;;;;;42.42;10.93;;;;;;;;;;5095445;28;20058;-79
2023/12/01 09:25:12;;;;;;;43.22;10.55;;;;;;;;;;5095614;28;20176;-79
2023/12/01 09:27:41;;;;;;;37.92;9.43;;;;;;;;;;5097985;28;20055;-77
2023/12/01 09:30:13;;;;;;;38.40;9.68;;;;;;;;;;5099084;28;20404;-79
2023/12/01 09:32:39;;;;;;;42.28;10.70;;;;;;;;;;5102927;28;20123;-79
2023/12/01 09:35:06;;;;;;;41.30;9.55;;;;;;;;;;5098502;28;20476;-78
2023/12/01 09:37:32;;;;;;;37.23;10.13;;;;;;;;;;5078452;28;20048;-79
2023/12/01 09:39:58;;;;;;;39.72;10.20;;;;;;;;;;5096774;28;20349;-79
2023/12/01 09:42:25;;;;;;;40.97;10.52;;;;;;;;;;5095821;28;20063;-78
2023/12/01 09:44:54;;;;;;;36.63;10.05;;;;;;;;;;5094604;28;20056;-80
2023/12/01 09:47:21;;;;;;;38.35;9.82;;;;;;;;;;5095849;28;20047;-80
2023/12/01 09:49:49;;;;;;;45.42;13.10;;;;;;;;;;5094532;28;20048;-77
2023/12/01 09:52:15;;;;;;;38.47;10.70;;;;;;;;;;5094379;28;20509;-78
2023/12/01 09:54:42;;;;;;;35.70;9.73;;;;;;;;;;5094843;28;20082;-76
2023/12/01 09:57:08;;;;;;;36.13;8.90;;;;;;;;;;5094767;28;20079;-78
2023/12/01 09:59:38;;;;;;;33.17;9.10;;;;;;;;;;5096570;28;20044;-77
2023/12/01 10:02:05;;;;;;;37.80;9.85;;;;;;;;;;5094700;28;20048;-79
2023/12/01 10:04:32;;;;;;;34.97;8.80;;;;;;;;;;5095584;28;20051;-79
2023/12/01 10:06:58;;;;;;;37.10;10.60;;;;;;;;;;5095499;28;20372;-77
2023/12/01 10:09:32;;;;;;;39.05;10.20;;;;;;;;;;5128975;27;20458;-77
2023/12/01 10:12:11;;;;;;;24.90;7.28;;;;;;;;;;5095267;28;20430;-75
2023/12/01 10:14:38;;;;;;;32.90;8.68;;;;;;;;;;5095204;28;20066;-77
2023/12/01 10:17:05;;;;;;;32.58;8.63;;;;;;;;;;5077842;28;20436;-77
2023/12/01 10:19:32;;;;;;;25.40;7.47;;;;;;;;;;5095260;28;20392;-76
2023/12/01 10:21:58;;;;;;;32.42;8.45;;;;;;;;;;5095159;28;20052;-79
2023/12/01 10:24:24;;;;;;;33.22;9.90;;;;;;;;;;5095278;28;20094;-80
2023/12/01 10:26:51;;;;;;;30.25;9.02;;;;;;;;;;5094360;28;20482;-79
2023/12/01 10:29:24;;;;;;;31.60;9.57;;;;;;;;;;5096382;28;20083;-77
2023/12/01 10:31:51;;;;;;;32.80;9.02;;;;;;;;;;5094082;28;20048;-79
2023/12/01 10:34:17;;;;;;;31.30;9.10;;;;;;;;;;5095892;28;20048;-80
2023/12/01 10:36:43;;;;;;;35.00;9.30;;;;;;;;;;5077796;28;20079;-79
2023/12/01 10:39:10;;;;;;;30.92;8.30;;;;;;;;;;5094906;28;20446;-78
2023/12/01 10:41:39;;;;;;;32.90;8.63;;;;;;;;;;5077648;28;20066;-78
2023/12/01 10:44:07;;;;;;;26.67;8.50;;;;;;;;;;5096551;28;20079;-78
2023/12/01 10:46:35;;;;;;;29.95;8.63;;;;;;;;;;5097835;28;20048;-79
2023/12/01 10:49:02;;;;;;;29.63;8.30;;;;;;;;;;5097197;28;20388;-80
2023/12/01 10:51:28;;;;;;;29.30;6.93;;;;;;;;;;5093531;28;20131;-79
2023/12/01 10:53:56;;;;;;;23.35;7.55;;;;;;;;;;5093640;28;20436;-80
2023/12/01 10:56:24;;;;;;;30.58;7.55;;;;;;;;;;5094988;28;20040;-79
2023/12/01 10:58:55;;;;;;;26.25;7.43;;;;;;;;;;5095295;28;20040;-80
2023/12/01 11:01:22;;;;;;;25.08;6.85;;;;;;;;;;5077225;28;20044;-79
2023/12/01 11:03:50;;;;;;;25.25;7.40;;;;;;;;;;5092907;28;20492;-78
2023/12/01 11:06:33;;;;;;;28.48;7.78;;;;;;;;;;5094519;28;20048;-79
2023/12/01 11:09:08;;;;;;;29.55;8.35;;;;;;;;;;5127689;27;20074;-81
2023/12/01 11:11:49;;;;;;;28.13;7.57;;;;;;;;;;5093828;28;20048;-78
2023/12/01 11:14:20;;;;;;;28.90;8.38;;;;;;;;;;5094874;28;20127;-77
2023/12/01 11:16:49;;;;;;;29.85;8.73;;;;;;;;;;5093131;28;20586;-80
2023/12/01 11:19:16;;;;;;;24.63;7.75;;;;;;;;;;5094295;28;20448;-80
2023/12/01 11:21:49;;;;;;;24.38;8.18;;;;;;;;;;5094516;28;20406;-79
2023/12/01 11:24:31;;;;;;;21.02;6.95;;;;;;;;;;5094128;28;20384;-80
2023/12/01 11:27:04;;;;;;;25.98;7.38;;;;;;;;;;5093265;28;20047;-79
2023/12/01 11:29:35;;;;;;;31.23;8.07;;;;;;;;;;5093367;28;20105;-80
2023/12/01 11:32:03;;;;;;;27.60;7.80;;;;;;;;;;5097152;28;20118;-79
2023/12/01 11:34:30;;;;;;;30.52;8.32;;;;;;;;;;5096293;28;20487;-81
2023/12/01 11:37:06;;;;;;;22.48;6.85;;;;;;;;;;5095494;28;20436;-76
2023/12/01 11:39:32;;;;;;;26.55;7.75;;;;;;;;;;5092422;28;20063;-78
2023/12/01 11:41:58;;;;;;;23.20;7.60;;;;;;;;;;5092769;28;20044;-79
2023/12/01 11:44:30;;;;;;;22.10;6.78;;;;;;;;;;5093875;28;20058;-77
2023/12/01 11:46:57;;;;;;;25.05;7.82;;;;;;;;;;5093707;28;20361;-78
2023/12/01 11:49:23;;;;;;;23.70;7.82;;;;;;;;;;5075367;28;20051;-80
2023/12/01 11:51:50;;;;;;;22.80;7.15;;;;;;;;;;5075991;28;20060;-79
2023/12/01 11:54:16;;;;;;;24.27;8.23;;;;;;;;;;5092618;28;20110;-79
2023/12/01 11:56:46;;;;;;;25.48;7.43;;;;;;;;;;5076737;28;20052;-80
2023/12/01 11:59:12;;;;;;;26.48;8.90;;;;;;;;;;5100266;28;20058;-78
2023/12/01 12:01:38;;;;;;;25.00;7.88;;;;;;;;;;5098827;28;20070;-81
2023/12/01 12:04:05;;;;;;;28.42;8.38;;;;;;;;;;5098265;28;20048;-80
2023/12/01 12:06:34;;;;;;;28.43;9.03;;;;;;;;;;5076842;28;20062;-78
2023/12/01 12:09:06;;;;;;;21.38;7.65;;;;;;;;;;5094764;28;20055;-79
2023/12/01 12:11:36;;;;;;;24.33;7.97;;;;;;;;;;5095870;28;20048;-79
2023/12/01 12:14:02;;;;;;;26.35;7.97;;;;;;;;;;5078673;28;20048;-81
2023/12/01 12:16:29;;;;;;;24.60;8.10;;;;;;;;;;5076688;28;20048;-78
2023/12/01 12:18:59;;;;;;;27.90;8.75;;;;;;;;;;5093396;28;20443;-80
2023/12/01 12:21:26;;;;;;;25.23;7.55;;;;;;;;;;5092358;28;20127;-80
2023/12/01 12:23:52;;;;;;;27.05;9.02;;;;;;;;;;5093089;28;20044;-80
2023/12/01 12:26:20;;;;;;;22.70;7.55;;;;;;;;;;5092330;28;20058;-79
2023/12/01 12:28:52;;;;;;;30.20;8.75;;;;;;;;;;5076548;28;20086;-79
2023/12/01 12:31:25;;;;;;;26.20;7.82;;;;;;;;;;5092940;28;20087;-81
2023/12/01 12:33:58;;;;;;;25.33;8.30;;;;;;;;;;5095209;28;20047;-83
2023/12/01 12:36:28;;;;;;;26.33;8.35;;;;;;;;;;5077654;28;20564;-82
2023/12/01 12:38:54;;;;;;;25.17;8.02;;;;;;;;;;5092954;28;20070;-81
2023/12/01 12:41:25;;;;;;;26.13;8.32;;;;;;;;;;5076310;28;20050;-83
2023/12/01 12:43:55;;;;;;;27.95;8.82;;;;;;;;;;5094365;28;20061;-83
2023/12/01 12:46:21;;;;;;;26.80;8.65;;;;;;;;;;5093677;28;20055;-85
2023/12/01 12:48:48;;;;;;;30.53;8.87;;;;;;;;;;5078414;28;20048;-85
2023/12/01 12:51:15;;;;;;;27.77;8.85;;;;;;;;;;5097572;28;20177;-83
2023/12/01 12:53:41;;;;;;;;;;;;;;;;;;5097328;28;20503;-85
2023/12/01 12:56:12;;;;;;;18.92;6.20;;;;;;;;;;5097262;28;19920;-82
2023/12/01 12:58:38;;;;;;;21.02;7.20;;;;;;;;;;5097622;28;20086;-82
2023/12/01 13:01:05;;;;;;;23.63;8.57;;;;;;;;;;5098175;28;20049;-83
2023/12/01 13:03:31;;;;;;;22.60;7.70;;;;;;;;;;5098374;28;20286;-85
2023/12/01 13:05:57;;;;;;;20.38;7.60;;;;;;;;;;5097641;28;20043;-83
2023/12/01 13:08:23;;;;;;;26.33;8.35;;;;;;;;;;5098733;28;20105;-85
2023/12/01 13:10:49;;;;;;;17.42;6.47;;;;;;;;;;5097186;28;20044;-83
2023/12/01 13:13:15;;;;;;;21.42;7.70;;;;;;;;;;5101080;28;20032;-79
2023/12/01 13:15:44;;;;;;;22.83;7.47;;;;;;;;;;5091836;28;20066;-87
2023/12/01 13:18:10;;;;;;;22.88;8.48;;;;;;;;;;5105525;28;20070;-84
2023/12/01 13:20:36;;;;;;;20.08;7.70;;;;;;;;;;5134114;27;20113;-83
2023/12/01 13:23:03;;;;;;;23.30;8.23;;;;;;;;;;5096720;28;20079;-85
2023/12/01 13:25:29;;;;;;;24.05;7.70;;;;;;;;;;5097224;28;20047;-84
2023/12/01 13:27:55;;;;;;;25.30;8.10;;;;;;;;;;5097292;28;20106;-85
2023/12/01 13:30:21;;;;;;;21.63;7.80;;;;;;;;;;5130783;27;20055;-85
2023/12/01 13:32:47;;;;;;;18.00;6.05;;;;;;;;;;5095711;28;20044;-85
2023/12/01 13:35:13;;;;;;;21.48;7.63;;;;;;;;;;5097438;28;20048;-83
2023/12/01 13:37:40;;;;;;;19.75;6.70;;;;;;;;;;5096517;28;20040;-84
2023/12/01 13:40:08;;;;;;;22.98;7.60;;;;;;;;;;5078864;28;20157;-80
2023/12/01 13:42:35;;;;;;;24.92;8.43;;;;;;;;;;5096625;28;20060;-85
2023/12/01 13:45:02;;;;;;;24.55;8.15;;;;;;;;;;5079677;28;20467;-82
2023/12/01 13:47:30;;;;;;;25.25;8.65;;;;;;;;;;5096996;28;20078;-85
2023/12/01 13:49:56;;;;;;;22.30;7.35;;;;;;;;;;5096666;28;20044;-82
2023/12/01 13:52:24;;;;;;;24.90;8.73;;;;;;;;;;5096082;28;20086;-85
2023/12/01 13:54:53;;;;;;;24.65;8.27;;;;;;;;;;5063058;28;20461;-84
2023/12/01 13:57:19;;;;;;;22.70;8.35;;;;;;;;;;5096883;28;20044;-82
2023/12/01 13:59:45;;;;;;;29.15;9.00;;;;;;;;;;5095596;28;20036;-82
2023/12/01 14:02:11;;;;;;;24.13;8.25;;;;;;;;;;5097329;28;20075;-84
2023/12/01 14:04:38;;;;;;;28.67;10.25;;;;;;;;;;5098684;28;20086;-81
2023/12/01 14:07:05;;;;;;;23.65;8.52;;;;;;;;;;5098467;28;20040;-80
2023/12/01 14:09:31;;;;;;;26.88;8.65;;;;;;;;;;5064447;28;20044;-81
2023/12/01 14:11:58;;;;;;;23.43;9.13;;;;;;;;;;5097898;28;20145;-80
2023/12/01 14:14:24;;;;;;;24.42;8.90;;;;;;;;;;5096309;28;20127;-80
2023/12/01 14:16:53;;;;;;;26.25;8.65;;;;;;;;;;5097124;28;20047;-80
2023/12/01 14:19:22;;;;;;;26.00;8.57;;;;;;;;;;5098152;28;20113;-79
2023/12/01 14:21:48;;;;;;;22.92;7.97;;;;;;;;;;5097128;28;20044;-81
2023/12/01 14:24:14;;;;;;;25.35;8.88;;;;;;;;;;5099212;28;20135;-81